sensor_id;sensor_type;location;lat;lon;timestamp;temperature;humidity
20162;DHT22;51382;53.180;15.414;2023-08-12T00:01:45;14.20;99.90
20162;DHT22;51382;53.180;15.414;2023-08-12T00:16:58;14.20;99.90
20162;DHT22;51382;53.180;15.414;2023-08-12T00:32:10;14.40;99.90
20162;DHT22;51382;53.180;15.414;2023-08-12T00:47:22;14.40;99.90
20162;DHT22;51382;53.180;15.414;2023-08-12T01:02:33;14.20;99.90
20162;DHT22;51382;53.180;15.414;2023-08-12T01:17:45;14.10;99.90
20162;DHT22;51382;53.180;15.414;2023-08-12T01:33:01;14.10;99.90
20162;DHT22;51382;53.180;15.414;2023-08-12T01:48:17;14.10;99.90
20162;DHT22;51382;53.180;15.414;2023-08-12T02:03:32;13.90;99.90
20162;DHT22;51382;53.180;15.414;2023-08-12T02:18:44;13.90;99.90
20162;DHT22;51382;53.180;15.414;2023-08-12T02:33:55;14.00;99.90
20162;DHT22;51382;53.180;15.414;2023-08-12T02:49:06;13.90;99.90
20162;DHT22;51382;53.180;15.414;2023-08-12T03:04:18;13.70;99.90
20162;DHT22;51382;53.180;15.414;2023-08-12T03:19:31;13.50;99.90
20162;DHT22;51382;53.180;15.414;2023-08-12T03:34:42;13.30;99.90
20162;DHT22;51382;53.180;15.414;2023-08-12T03:49:54;13.30;99.90
20162;DHT22;51382;53.180;15.414;2023-08-12T04:05:07;13.70;99.90
20162;DHT22;51382;53.180;15.414;2023-08-12T04:20:18;14.20;99.90
20162;DHT22;51382;53.180;15.414;2023-08-12T04:35:32;14.20;99.90
20162;DHT22;51382;53.180;15.414;2023-08-12T04:50:43;15.70;99.90
20162;DHT22;51382;53.180;15.414;2023-08-12T05:05:55;16.00;99.90
20162;DHT22;51382;53.180;15.414;2023-08-12T05:21:02;16.10;99.90
20162;DHT22;51382;53.180;15.414;2023-08-12T05:36:14;16.20;99.90
20162;DHT22;51382;53.180;15.414;2023-08-12T05:51:25;17.30;99.90
20162;DHT22;51382;53.180;15.414;2023-08-12T06:06:36;18.30;99.90
20162;DHT22;51382;53.180;15.414;2023-08-12T06:21:48;19.60;99.90
20162;DHT22;51382;53.180;15.414;2023-08-12T06:36:59;20.90;99.90
20162;DHT22;51382;53.180;15.414;2023-08-12T06:52:12;21.70;99.90
20162;DHT22;51382;53.180;15.414;2023-08-12T07:07:24;22.20;99.90
20162;DHT22;51382;53.180;15.414;2023-08-12T07:22:35;31.80;70.50
20162;DHT22;51382;53.180;15.414;2023-08-12T07:37:47;31.10;66.30
20162;DHT22;51382;53.180;15.414;2023-08-12T07:52:53;29.90;70.20
20162;DHT22;51382;53.180;15.414;2023-08-12T08:08:05;27.50;73.40
20162;DHT22;51382;53.180;15.414;2023-08-12T08:23:16;25.70;77.10
20162;DHT22;51382;53.180;15.414;2023-08-12T08:38:27;25.70;77.70
20162;DHT22;51382;53.180;15.414;2023-08-12T08:53:39;24.90;79.00
20162;DHT22;51382;53.180;15.414;2023-08-12T09:08:51;25.70;78.00
20162;DHT22;51382;53.180;15.414;2023-08-12T09:24:03;26.00;76.00
20162;DHT22;51382;53.180;15.414;2023-08-12T09:39:12;26.60;76.30
20162;DHT22;51382;53.180;15.414;2023-08-12T09:54:26;27.20;74.10
20162;DHT22;51382;53.180;15.414;2023-08-12T10:09:40;25.90;77.70
20162;DHT22;51382;53.180;15.414;2023-08-12T10:24:52;28.40;75.40
20162;DHT22;51382;53.180;15.414;2023-08-12T10:40:04;28.20;70.80
20162;DHT22;51382;53.180;15.414;2023-08-12T10:55:29;29.10;69.00
20162;DHT22;51382;53.180;15.414;2023-08-12T11:10:41;27.00;75.60
20162;DHT22;51382;53.180;15.414;2023-08-12T11:25:53;26.10;76.80
20162;DHT22;51382;53.180;15.414;2023-08-12T11:41:04;26.10;77.90
20162;DHT22;51382;53.180;15.414;2023-08-12T11:56:18;26.00;77.00
20162;DHT22;51382;53.180;15.414;2023-08-12T12:11:32;26.00;80.10
20162;DHT22;51382;53.180;15.414;2023-08-12T12:26:43;26.90;78.60
20162;DHT22;51382;53.180;15.414;2023-08-12T12:41:58;27.30;77.80
20162;DHT22;51382;53.180;15.414;2023-08-12T12:57:09;27.40;77.00
20162;DHT22;51382;53.180;15.414;2023-08-12T13:12:21;28.30;75.50
20162;DHT22;51382;53.180;15.414;2023-08-12T13:27:32;28.70;72.70
20162;DHT22;51382;53.180;15.414;2023-08-12T13:42:44;28.40;73.30
20162;DHT22;51382;53.180;15.414;2023-08-12T13:57:55;28.30;75.00
20162;DHT22;51382;53.180;15.414;2023-08-12T14:13:07;28.40;76.80
20162;DHT22;51382;53.180;15.414;2023-08-12T14:28:18;28.20;75.40
20162;DHT22;51382;53.180;15.414;2023-08-12T14:43:30;28.10;77.90
20162;DHT22;51382;53.180;15.414;2023-08-12T14:58:41;27.80;76.80
20162;DHT22;51382;53.180;15.414;2023-08-12T15:13:52;26.60;79.00
20162;DHT22;51382;53.180;15.414;2023-08-12T15:29:04;26.70;80.70
20162;DHT22;51382;53.180;15.414;2023-08-12T15:44:15;25.90;84.80
20162;DHT22;51382;53.180;15.414;2023-08-12T15:59:27;25.90;85.50
20162;DHT22;51382;53.180;15.414;2023-08-12T16:14:38;26.00;84.90
20162;DHT22;51382;53.180;15.414;2023-08-12T16:29:51;25.40;90.00
20162;DHT22;51382;53.180;15.414;2023-08-12T16:45:03;25.40;90.80
20162;DHT22;51382;53.180;15.414;2023-08-12T17:00:16;25.50;91.50
20162;DHT22;51382;53.180;15.414;2023-08-12T17:15:28;25.10;93.00
20162;DHT22;51382;53.180;15.414;2023-08-12T17:30:39;25.00;92.80
20162;DHT22;51382;53.180;15.414;2023-08-12T17:45:50;24.90;92.70
20162;DHT22;51382;53.180;15.414;2023-08-12T18:01:02;24.80;92.80
20162;DHT22;51382;53.180;15.414;2023-08-12T18:16:13;24.30;94.00
20162;DHT22;51382;53.180;15.414;2023-08-12T18:31:24;24.30;94.50
20162;DHT22;51382;53.180;15.414;2023-08-12T18:46:35;24.10;94.30
20162;DHT22;51382;53.180;15.414;2023-08-12T19:01:47;24.10;94.50
20162;DHT22;51382;53.180;15.414;2023-08-12T19:16:59;24.00;95.30
20162;DHT22;51382;53.180;15.414;2023-08-12T19:32:11;23.70;96.00
20162;DHT22;51382;53.180;15.414;2023-08-12T19:47:22;23.50;97.30
20162;DHT22;51382;53.180;15.414;2023-08-12T20:02:29;23.20;98.10
20162;DHT22;51382;53.180;15.414;2023-08-12T20:17:40;23.30;97.40
20162;DHT22;51382;53.180;15.414;2023-08-12T20:32:52;23.60;96.00
20162;DHT22;51382;53.180;15.414;2023-08-12T20:48:04;23.00;99.90
20162;DHT22;51382;53.180;15.414;2023-08-12T21:03:16;21.10;99.90
20162;DHT22;51382;53.180;15.414;2023-08-12T21:18:28;20.90;99.90
20162;DHT22;51382;53.180;15.414;2023-08-12T21:33:39;21.30;99.90
20162;DHT22;51382;53.180;15.414;2023-08-12T21:48:50;21.00;99.90
20162;DHT22;51382;53.180;15.414;2023-08-12T22:04:02;20.80;99.90
20162;DHT22;51382;53.180;15.414;2023-08-12T22:19:14;21.00;99.90
20162;DHT22;51382;53.180;15.414;2023-08-12T22:34:25;21.10;99.90
20162;DHT22;51382;53.180;15.414;2023-08-12T22:49:36;21.00;99.90
20162;DHT22;51382;53.180;15.414;2023-08-12T23:04:47;21.10;99.90
20162;DHT22;51382;53.180;15.414;2023-08-12T23:19:59;20.10;99.90
20162;DHT22;51382;53.180;15.414;2023-08-12T23:35:11;20.00;99.90
20162;DHT22;51382;53.180;15.414;2023-08-12T23:50:26;20.00;99.90
